Wetterdaten: Woche 29.08.16 - 04.09.16 (KW35)
Datum Zeit Temp. Aussen Temp. o. S. +5cm Feuchte Auss BlattFeu 1 Luftdruck Regen Sonnenschein Regendauer Solar Windben Empfang
29.08.2016 00:00 18,5 C 17,2 C 15,2 C 79 % 1 lf 1015,6 hPa 0,0 l/m 0,00 h 0,00 h 4 W/m 6,6 km/h (2 Bft) 96,18 %
29.08.2016 01:00 17,6 C 17,0 C 15,2 C 83 % 1 lf 1015,5 hPa 0,0 l/m 0,00 h 0,00 h 0 W/m 8,3 km/h (2 Bft) 94,83 %
29.08.2016 02:00 17,2 C 16,8 C 15,1 C 84 % 1 lf 1015,3 hPa 0,0 l/m 0,00 h 0,00 h 4 W/m 10,7 km/h (2 Bft) 98,02 %
29.08.2016 03:00 16,8 C 16,6 C 14,9 C 85 % 1 lf 1015,2 hPa 0,0 l/m 0,00 h 0,00 h 0 W/m 10,6 km/h (2 Bft) 95,50 %
29.08.2016 04:00 16,6 C 16,3 C 14,6 C 86 % 1 lf 1015,4 hPa 0,0 l/m 0,00 h 0,00 h 0 W/m 11,4 km/h (2 Bft) 95,30 %
29.08.2016 05:00 16,6 C 16,7 C 15,0 C 87 % 1 lf 1015,5 hPa 0,0 l/m 0,00 h 0,00 h 0 W/m 11,4 km/h (2 Bft) 97,62 %
29.08.2016 06:00 16,8 C 16,9 C 15,6 C 88 % 1 lf 1015,8 hPa 0,0 l/m 0,00 h 0,00 h 6 W/m 10,4 km/h (2 Bft) 96,82 %
29.08.2016 07:00 17,4 C 17,8 C 16,5 C 88 % 1 lf 1016,2 hPa 0,0 l/m 0,00 h 0,00 h 28 W/m 12,6 km/h (3 Bft) 93,11 %
29.08.2016 08:00 18,1 C 19,2 C 17,7 C 87 % 1 lf 1016,7 hPa 0,0 l/m 0,03 h 0,00 h 100 W/m 12,7 km/h (3 Bft) 97,59 %
29.08.2016 09:00 18,9 C 20,0 C 18,3 C 85 % 5 lf 1017,1 hPa 0,2 l/m 0,17 h 0,30 h 123 W/m 12,1 km/h (2 Bft) 96,40 %
29.08.2016 10:00 18,3 C 17,2 C 16,2 C 90 % 15 lf 1017,7 hPa 1,4 l/m 0,00 h 0,97 h 93 W/m 11,2 km/h (2 Bft) 95,90 %
29.08.2016 11:00 18,0 C 18,1 C 17,1 C 94 % 15 lf 1018,4 hPa 0,2 l/m 0,00 h 0,47 h 157 W/m 9,2 km/h (2 Bft) 95,68 %
29.08.2016 12:00 18,4 C 20,9 C 18,5 C 95 % 12 lf 1018,7 hPa 0,0 l/m 0,40 h 0,03 h 353 W/m 5,4 km/h (1 Bft) 97,07 %
29.08.2016 13:00 20,0 C 24,1 C 19,4 C 89 % 0 lf 1019,0 hPa 0,0 l/m 0,43 h 0,00 h 338 W/m 7,0 km/h (2 Bft) 96,36 %
29.08.2016 14:00 21,4 C 26,0 C 22,8 C 81 % 0 lf 1019,3 hPa 0,0 l/m 0,50 h 0,00 h 407 W/m 9,2 km/h (2 Bft) 95,67 %
29.08.2016 15:00 22,1 C 25,6 C 22,3 C 76 % 0 lf 1019,3 hPa 0,0 l/m 0,23 h 0,00 h 341 W/m 8,6 km/h (2 Bft) 96,06 %
29.08.2016 16:00 21,5 C 21,5 C 20,1 C 77 % 0 lf 1019,5 hPa 0,0 l/m 0,00 h 0,00 h 86 W/m 8,9 km/h (2 Bft) 97,45 %
29.08.2016 17:00 21,0 C 24,7 C 20,6 C 76 % 0 lf 1019,9 hPa 0,0 l/m 0,70 h 0,00 h 343 W/m 12,4 km/h (3 Bft) 94,20 %
29.08.2016 18:00 21,7 C 22,8 C 20,0 C 71 % 0 lf 1020,2 hPa 0,0 l/m 0,93 h 0,00 h 219 W/m 14,1 km/h (3 Bft) 98,05 %
29.08.2016 19:00 21,0 C 20,8 C 18,8 C 72 % 0 lf 1020,5 hPa 0,0 l/m 0,23 h 0,00 h 58 W/m 11,1 km/h (2 Bft) 96,08 %
29.08.2016 20:00 19,8 C 18,7 C 17,4 C 77 % 0 lf 1021,1 hPa 0,0 l/m 0,07 h 0,00 h 12 W/m 7,6 km/h (2 Bft) 95,99 %
29.08.2016 21:00 18,7 C 17,2 C 15,6 C 80 % 0 lf 1022,0 hPa 0,0 l/m 0,00 h 0,00 h 0 W/m 5,3 km/h (1 Bft) 95,52 %
29.08.2016 22:00 17,8 C 17,3 C 16,2 C 81 % 0 lf 1022,8 hPa 0,0 l/m 0,00 h 0,00 h 0 W/m 9,7 km/h (2 Bft) 96,50 %
29.08.2016 23:00 17,5 C 17,0 C 15,6 C 78 % 0 lf 1023,2 hPa 0,0 l/m 0,00 h 0,00 h 0 W/m 7,9 km/h (2 Bft) 95,11 %
30.08.2016 00:00 17,0 C 16,4 C 15,2 C 82 % 0 lf 1023,5 hPa 0,0 l/m 0,00 h 0,00 h 0 W/m 4,5 km/h (1 Bft) 97,20 %
30.08.2016 01:00 16,2 C 14,2 C 13,1 C 83 % 1 lf 1023,6 hPa 0,0 l/m 0,00 h 0,00 h 0 W/m 3,1 km/h (1 Bft) 94,07 %
30.08.2016 02:00 14,8 C 12,6 C 11,7 C 86 % 3 lf 1023,7 hPa 0,0 l/m 0,00 h 0,00 h 0 W/m 0,0 km/h (0 Bft) 97,24 %
30.08.2016 03:00 13,6 C 11,8 C 10,8 C 89 % 10 lf 1024,2 hPa 0,0 l/m 0,00 h 0,00 h 4 W/m 0,0 km/h (0 Bft) 97,72 %
30.08.2016 04:00 12,7 C 11,0 C 10,5 C 91 % 15 lf 1024,3 hPa 0,0 l/m 0,00 h 0,00 h 5 W/m 0,0 km/h (0 Bft) 94,43 %
30.08.2016 05:00 12,1 C 10,5 C 9,9 C 93 % 15 lf 1024,2 hPa 0,0 l/m 0,00 h 0,00 h 5 W/m 0,0 km/h (0 Bft) 95,46 %
30.08.2016 06:00 11,5 C 10,0 C 9,4 C 93 % 15 lf 1024,3 hPa 0,0 l/m 0,00 h 0,00 h 11 W/m 0,0 km/h (0 Bft) 97,89 %
30.08.2016 07:00 11,1 C 10,5 C 9,6 C 94 % 15 lf 1024,8 hPa 0,0 l/m 0,80 h 0,00 h 72 W/m 0,0 km/h (0 Bft) 95,90 %
30.08.2016 08:00 11,9 C 13,3 C 11,3 C 95 % 15 lf 1025,1 hPa 0,0 l/m 1,00 h 0,00 h 231 W/m 0,6 km/h (0 Bft) 96,35 %
30.08.2016 09:00 15,2 C 26,4 C 15,3 C 97 % 3 lf 1025,5 hPa 0,0 l/m 1,00 h 0,00 h 407 W/m 3,1 km/h (1 Bft) 95,68 %
30.08.2016 10:00 19,4 C 29,3 C 23,9 C 81 % 0 lf 1026,0 hPa 0,0 l/m 1,00 h 0,00 h 555 W/m 6,2 km/h (2 Bft) 95,61 %
30.08.2016 11:00 22,0 C 30,6 C 27,0 C 67 % 0 lf 1026,1 hPa 0,0 l/m 1,00 h 0,00 h 685 W/m 10,4 km/h (2 Bft) 97,60 %
30.08.2016 12:00 23,0 C 31,7 C 24,6 C 58 % 0 lf 1025,7 hPa 0,0 l/m 0,93 h 0,00 h 729 W/m 13,0 km/h (3 Bft) 95,61 %
30.08.2016 13:00 23,5 C 33,6 C 22,4 C 56 % 0 lf 1025,2 hPa 0,0 l/m 1,00 h 0,00 h 771 W/m 12,2 km/h (2 Bft) 94,27 %
30.08.2016 14:00 24,1 C 31,9 C 23,5 C 51 % 0 lf 1024,7 hPa 0,0 l/m 1,00 h 0,00 h 736 W/m 13,0 km/h (3 Bft) 98,15 %
30.08.2016 15:00 25,2 C 32,0 C 26,1 C 47 % 0 lf 1024,1 hPa 0,0 l/m 1,00 h 0,00 h 670 W/m 13,5 km/h (3 Bft) 95,38 %
30.08.2016 16:00 25,4 C 31,4 C 23,0 C 45 % 0 lf 1023,5 hPa 0,0 l/m 1,00 h 0,00 h 556 W/m 15,1 km/h (3 Bft) 94,67 %
30.08.2016 17:00 25,2 C 28,7 C 22,1 C 44 % 0 lf 1023,2 hPa 0,0 l/m 1,00 h 0,00 h 407 W/m 15,7 km/h (3 Bft) 97,63 %
30.08.2016 18:00 24,4 C 24,8 C 21,3 C 45 % 0 lf 1022,7 hPa 0,0 l/m 0,97 h 0,00 h 231 W/m 14,8 km/h (3 Bft) 95,98 %
30.08.2016 19:00 23,5 C 22,7 C 19,5 C 49 % 0 lf 1022,6 hPa 0,0 l/m 0,17 h 0,00 h 44 W/m 9,8 km/h (2 Bft) 94,39 %
30.08.2016 20:00 21,7 C 19,6 C 16,2 C 55 % 0 lf 1022,6 hPa 0,0 l/m 0,00 h 0,00 h 10 W/m 5,0 km/h (1 Bft) 98,16 %
30.08.2016 21:00 19,3 C 16,4 C 13,8 C 64 % 0 lf 1022,7 hPa 0,0 l/m 0,00 h 0,00 h 0 W/m 0,0 km/h (0 Bft) 95,39 %
30.08.2016 22:00 17,3 C 14,7 C 12,8 C 73 % 1 lf 1022,6 hPa 0,0 l/m 0,00 h 0,00 h 3 W/m 0,0 km/h (0 Bft) 94,59 %
30.08.2016 23:00 15,8 C 13,6 C 12,1 C 80 % 1 lf 1022,5 hPa 0,0 l/m 0,00 h 0,00 h 4 W/m 0,0 km/h (0 Bft) 96,26 %
31.08.2016 00:00 14,6 C 12,7 C 11,5 C 84 % 2 lf 1022,2 hPa 0,0 l/m 0,00 h 0,00 h 5 W/m 0,0 km/h (0 Bft) 96,04 %
31.08.2016 01:00 13,8 C 12,2 C 10,8 C 86 % 3 lf 1021,9 hPa 0,0 l/m 0,00 h 0,00 h 5 W/m 0,0 km/h (0 Bft) 96,21 %
31.08.2016 02:00 13,0 C 11,9 C 10,5 C 87 % 5 lf 1021,6 hPa 0,0 l/m 0,00 h 0,00 h 0 W/m 0,0 km/h (0 Bft) 96,32 %
31.08.2016 03:00 12,4 C 11,6 C 10,0 C 89 % 8 lf 1021,3 hPa 0,0 l/m 0,00 h 0,00 h 0 W/m 0,0 km/h (0 Bft) 94,06 %
31.08.2016 04:00 11,8 C 10,8 C 9,4 C 90 % 4 lf 1021,0 hPa 0,0 l/m 0,00 h 0,00 h 0 W/m 0,0 km/h (0 Bft) 96,83 %
31.08.2016 05:00 11,4 C 10,7 C 9,4 C 91 % 4 lf 1020,6 hPa 0,0 l/m 0,00 h 0,00 h 0 W/m 0,0 km/h (0 Bft) 98,30 %
31.08.2016 06:00 11,3 C 11,6 C 9,4 C 92 % 3 lf 1020,3 hPa 0,0 l/m 0,00 h 0,00 h 9 W/m 0,0 km/h (0 Bft) 93,34 %
31.08.2016 07:00 11,7 C 12,6 C 10,3 C 92 % 2 lf 1020,2 hPa 0,0 l/m 0,90 h 0,00 h 67 W/m 0,0 km/h (0 Bft) 96,46 %
31.08.2016 08:00 13,1 C 15,5 C 12,4 C 89 % 1 lf 1020,2 hPa 0,0 l/m 1,00 h 0,00 h 241 W/m 6,3 km/h (2 Bft) 97,07 %
31.08.2016 09:00 17,0 C 23,1 C 16,0 C 76 % 0 lf 1020,1 hPa 0,0 l/m 1,00 h 0,00 h 406 W/m 15,8 km/h (3 Bft) 95,06 %
31.08.2016 10:00 20,4 C 26,7 C 24,4 C 67 % 0 lf 1020,0 hPa 0,0 l/m 1,00 h 0,00 h 547 W/m 14,7 km/h (3 Bft) 95,74 %
31.08.2016 11:00 23,1 C 31,1 C 28,8 C 61 % 0 lf 1020,0 hPa 0,0 l/m 0,93 h 0,00 h 620 W/m 8,6 km/h (2 Bft) 97,10 %
31.08.2016 12:00 25,6 C 35,4 C 28,0 C 55 % 0 lf 1019,6 hPa 0,0 l/m 0,97 h 0,00 h 737 W/m 7,0 km/h (2 Bft) 95,15 %
31.08.2016 13:00 26,9 C 35,2 C 25,6 C 52 % 0 lf 1019,2 hPa 0,0 l/m 1,00 h 0,00 h 762 W/m 9,9 km/h (2 Bft) 96,67 %
31.08.2016 14:00 28,0 C 35,6 C 26,9 C 48 % 0 lf 1019,0 hPa 0,0 l/m 1,00 h 0,00 h 776 W/m 14,1 km/h (3 Bft) 94,77 %
31.08.2016 15:00 28,1 C 34,1 C 29,1 C 50 % 0 lf 1018,7 hPa 0,0 l/m 0,93 h 0,00 h 628 W/m 17,9 km/h (3 Bft) 97,10 %
31.08.2016 16:00 27,6 C 32,9 C 25,5 C 50 % 0 lf 1018,7 hPa 0,0 l/m 0,93 h 0,00 h 512 W/m 18,1 km/h (3 Bft) 96,49 %
31.08.2016 17:00 27,0 C 30,7 C 24,4 C 51 % 0 lf 1018,7 hPa 0,0 l/m 0,93 h 0,00 h 371 W/m 17,8 km/h (3 Bft) 95,88 %
31.08.2016 18:00 25,8 C 26,2 C 22,8 C 54 % 0 lf 1018,7 hPa 0,0 l/m 0,97 h 0,00 h 209 W/m 16,1 km/h (3 Bft) 95,87 %
31.08.2016 19:00 24,5 C 23,6 C 20,5 C 56 % 0 lf 1018,8 hPa 0,0 l/m 0,17 h 0,00 h 46 W/m 10,4 km/h (2 Bft) 96,08 %
31.08.2016 20:00 22,5 C 19,9 C 16,6 C 63 % 0 lf 1018,9 hPa 0,0 l/m 0,00 h 0,00 h 9 W/m 0,0 km/h (0 Bft) 96,30 %
31.08.2016 21:00 19,9 C 17,6 C 15,0 C 73 % 0 lf 1019,5 hPa 0,0 l/m 0,00 h 0,00 h 4 W/m 0,0 km/h (0 Bft) 96,44 %
31.08.2016 22:00 18,3 C 16,8 C 14,4 C 80 % 1 lf 1019,6 hPa 0,0 l/m 0,00 h 0,00 h 4 W/m 0,0 km/h (0 Bft) 94,45 %
31.08.2016 23:00 17,3 C 16,1 C 14,0 C 84 % 2 lf 1019,7 hPa 0,0 l/m 0,00 h 0,00 h 5 W/m 0,0 km/h (0 Bft) 98,44 %
01.09.2016 00:00 16,3 C 14,7 C 13,1 C 87 % 2 lf 1020,0 hPa 0,0 l/m 0,00 h 0,00 h 1 W/m 1,6 km/h (1 Bft) 95,73 %
01.09.2016 01:00 15,4 C 14,4 C 12,8 C 87 % 2 lf 1020,3 hPa 0,0 l/m 0,00 h 0,00 h 0 W/m 2,3 km/h (1 Bft) 94,39 %
01.09.2016 02:00 15,0 C 14,3 C 12,8 C 89 % 2 lf 1020,3 hPa 0,0 l/m 0,00 h 0,00 h 0 W/m 4,5 km/h (1 Bft) 96,80 %
01.09.2016 03:00 14,8 C 14,3 C 12,5 C 90 % 2 lf 1020,6 hPa 0,0 l/m 0,00 h 0,00 h 0 W/m 5,4 km/h (1 Bft) 97,13 %
01.09.2016 04:00 14,6 C 14,2 C 12,2 C 90 % 2 lf 1020,5 hPa 0,0 l/m 0,00 h 0,00 h 0 W/m 6,0 km/h (2 Bft) 95,02 %
01.09.2016 05:00 14,4 C 13,9 C 12,2 C 92 % 3 lf 1020,8 hPa 0,0 l/m 0,00 h 0,00 h 0 W/m 7,2 km/h (2 Bft) 96,02 %
01.09.2016 06:00 14,2 C 13,4 C 11,9 C 92 % 8 lf 1020,8 hPa 0,0 l/m 0,00 h 0,00 h 15 W/m 4,0 km/h (1 Bft) 95,80 %
01.09.2016 07:00 14,3 C 14,6 C 12,8 C 93 % 4 lf 1021,2 hPa 0,0 l/m 0,80 h 0,00 h 54 W/m 7,6 km/h (2 Bft) 96,37 %
01.09.2016 08:00 15,3 C 17,5 C 14,9 C 95 % 2 lf 1021,5 hPa 0,0 l/m 1,00 h 0,00 h 196 W/m 11,2 km/h (2 Bft) 97,30 %
01.09.2016 09:00 17,8 C 25,0 C 17,5 C 92 % 0 lf 1021,8 hPa 0,0 l/m 0,93 h 0,00 h 360 W/m 12,7 km/h (3 Bft) 95,25 %
01.09.2016 10:00 20,1 C 27,3 C 22,4 C 84 % 0 lf 1022,0 hPa 0,0 l/m 0,90 h 0,00 h 447 W/m 12,6 km/h (3 Bft) 95,84 %
01.09.2016 11:00 22,4 C 30,7 C 26,8 C 77 % 0 lf 1022,0 hPa 0,0 l/m 0,97 h 0,00 h 584 W/m 18,0 km/h (3 Bft) 98,05 %
01.09.2016 12:00 23,9 C 30,9 C 26,6 C 73 % 0 lf 1021,8 hPa 0,0 l/m 0,77 h 0,00 h 595 W/m 16,9 km/h (3 Bft) 93,05 %
01.09.2016 13:00 25,3 C 33,0 C 25,9 C 67 % 0 lf 1021,4 hPa 0,0 l/m 0,97 h 0,00 h 775 W/m 18,7 km/h (3 Bft) 97,37 %
01.09.2016 14:00 25,6 C 31,5 C 25,6 C 64 % 0 lf 1021,2 hPa 0,0 l/m 0,77 h 0,00 h 648 W/m 20,1 km/h (4 Bft) 97,42 %
01.09.2016 15:00 26,4 C 33,3 C 28,4 C 62 % 0 lf 1021,1 hPa 0,0 l/m 1,00 h 0,00 h 672 W/m 19,4 km/h (3 Bft) 94,16 %
01.09.2016 16:00 25,7 C 29,6 C 24,5 C 64 % 0 lf 1021,1 hPa 0,0 l/m 0,60 h 0,00 h 403 W/m 17,4 km/h (3 Bft) 96,26 %
01.09.2016 17:00 24,3 C 25,5 C 23,3 C 67 % 0 lf 1021,1 hPa 0,0 l/m 0,20 h 0,00 h 187 W/m 15,2 km/h (3 Bft) 98,30 %
01.09.2016 18:00 23,5 C 24,1 C 22,4 C 70 % 0 lf 1021,1 hPa 0,0 l/m 0,57 h 0,00 h 146 W/m 10,5 km/h (2 Bft) 94,56 %
01.09.2016 19:00 22,7 C 22,4 C 20,5 C 71 % 0 lf 1021,2 hPa 0,0 l/m 0,20 h 0,00 h 45 W/m 9,9 km/h (2 Bft) 96,43 %
01.09.2016 20:00 21,6 C 19,9 C 17,6 C 73 % 0 lf 1021,3 hPa 0,0 l/m 0,00 h 0,00 h 13 W/m 2,6 km/h (1 Bft) 96,83 %
01.09.2016 21:00 19,8 C 17,4 C 15,3 C 77 % 1 lf 1021,5 hPa 0,0 l/m 0,00 h 0,00 h 5 W/m 0,0 km/h (0 Bft) 97,45 %
01.09.2016 22:00 18,0 C 15,9 C 14,2 C 81 % 1 lf 1021,7 hPa 0,0 l/m 0,00 h 0,00 h 5 W/m 0,8 km/h (0 Bft) 93,83 %
01.09.2016 23:00 16,7 C 14,7 C 13,1 C 85 % 2 lf 1021,5 hPa 0,0 l/m 0,00 h 0,00 h 5 W/m 0,0 km/h (0 Bft) 96,37 %
02.09.2016 00:00 15,5 C 13,7 C 12,5 C 87 % 2 lf 1021,4 hPa 0,0 l/m 0,00 h 0,00 h 5 W/m 0,3 km/h (0 Bft) 95,86 %
02.09.2016 01:00 14,6 C 13,0 C 11,9 C 89 % 4 lf 1021,2 hPa 0,0 l/m 0,00 h 0,00 h 0 W/m 0,7 km/h (0 Bft) 98,13 %
02.09.2016 02:00 14,0 C 12,5 C 11,4 C 90 % 11 lf 1021,0 hPa 0,0 l/m 0,00 h 0,00 h 0 W/m 0,6 km/h (0 Bft) 93,84 %
02.09.2016 03:00 13,3 C 12,3 C 11,1 C 91 % 15 lf 1020,9 hPa 0,0 l/m 0,00 h 0,00 h 0 W/m 0,0 km/h (0 Bft) 95,44 %
02.09.2016 04:00 12,9 C 12,2 C 10,7 C 92 % 15 lf 1020,8 hPa 0,0 l/m 0,00 h 0,00 h 0 W/m 0,0 km/h (0 Bft) 97,67 %
02.09.2016 05:00 12,6 C 12,2 C 10,6 C 94 % 15 lf 1020,6 hPa 0,0 l/m 0,00 h 0,00 h 0 W/m 2,6 km/h (1 Bft) 96,66 %
02.09.2016 06:00 12,7 C 12,4 C 10,7 C 95 % 15 lf 1020,2 hPa 0,0 l/m 0,00 h 0,00 h 6 W/m 4,5 km/h (1 Bft) 94,45 %
02.09.2016 07:00 12,9 C 13,2 C 11,3 C 96 % 15 lf 1020,2 hPa 0,0 l/m 0,63 h 0,00 h 54 W/m 5,5 km/h (1 Bft) 97,02 %
02.09.2016 08:00 13,8 C 15,8 C 12,9 C 97 % 13 lf 1020,5 hPa 0,0 l/m 0,90 h 0,00 h 195 W/m 7,2 km/h (2 Bft) 96,08 %
02.09.2016 09:00 16,9 C 26,0 C 16,8 C 96 % 0 lf 1020,5 hPa 0,0 l/m 1,00 h 0,00 h 384 W/m 11,6 km/h (2 Bft) 96,13 %
02.09.2016 10:00 20,5 C 29,7 C 23,8 C 77 % 0 lf 1020,5 hPa 0,0 l/m 1,00 h 0,00 h 566 W/m 16,0 km/h (3 Bft) 96,03 %
02.09.2016 11:00 22,3 C 29,8 C 26,0 C 68 % 0 lf 1020,3 hPa 0,0 l/m 1,00 h 0,00 h 617 W/m 19,4 km/h (3 Bft) 96,10 %
02.09.2016 12:00 22,9 C 30,0 C 24,7 C 64 % 0 lf 1019,9 hPa 0,0 l/m 0,97 h 0,00 h 612 W/m 20,5 km/h (4 Bft) 95,03 %
02.09.2016 13:00 23,7 C 30,4 C 23,4 C 60 % 0 lf 1019,5 hPa 0,0 l/m 1,00 h 0,00 h 653 W/m 20,0 km/h (4 Bft) 96,49 %
02.09.2016 14:00 24,8 C 31,9 C 24,8 C 55 % 0 lf 1018,9 hPa 0,0 l/m 1,00 h 0,00 h 702 W/m 21,1 km/h (4 Bft) 96,61 %
02.09.2016 15:00 25,2 C 29,6 C 25,9 C 55 % 0 lf 1018,5 hPa 0,0 l/m 1,00 h 0,00 h 508 W/m 21,8 km/h (4 Bft) 96,70 %
02.09.2016 16:00 24,7 C 27,8 C 24,8 C 56 % 0 lf 1018,0 hPa 0,0 l/m 0,93 h 0,00 h 391 W/m 20,6 km/h (4 Bft) 93,90 %
02.09.2016 17:00 23,6 C 24,1 C 22,4 C 59 % 0 lf 1017,9 hPa 0,0 l/m 0,00 h 0,00 h 163 W/m 18,4 km/h (3 Bft) 98,15 %
02.09.2016 18:00 22,7 C 22,8 C 21,1 C 64 % 0 lf 1017,9 hPa 0,0 l/m 0,00 h 0,00 h 93 W/m 10,5 km/h (2 Bft) 96,38 %
02.09.2016 19:00 21,8 C 21,1 C 19,3 C 68 % 0 lf 1017,9 hPa 0,0 l/m 0,00 h 0,00 h 28 W/m 5,0 km/h (1 Bft) 95,37 %
02.09.2016 20:00 20,9 C 19,9 C 17,8 C 72 % 0 lf 1018,0 hPa 0,0 l/m 0,00 h 0,00 h 10 W/m 1,5 km/h (1 Bft) 96,18 %
02.09.2016 21:00 20,0 C 19,0 C 17,1 C 76 % 0 lf 1018,3 hPa 0,0 l/m 0,00 h 0,00 h 5 W/m 2,6 km/h (1 Bft) 96,95 %
02.09.2016 22:00 19,3 C 18,7 C 16,8 C 79 % 0 lf 1018,2 hPa 0,0 l/m 0,00 h 0,00 h 4 W/m 4,8 km/h (1 Bft) 96,03 %
02.09.2016 23:00 19,1 C 19,1 C 17,5 C 81 % 0 lf 1017,7 hPa 0,0 l/m 0,00 h 0,00 h 0 W/m 8,9 km/h (2 Bft) 97,16 %
03.09.2016 00:00 18,8 C 18,0 C 16,4 C 80 % 4 lf 1018,4 hPa 0,0 l/m 0,00 h 0,35 h 2 W/m 14,2 km/h (3 Bft) 91,65 %
03.09.2016 01:00 17,5 C 16,7 C 15,0 C 77 % 0 lf 1018,3 hPa 0,0 l/m 0,00 h 0,00 h 5 W/m 3,3 km/h (1 Bft) 97,52 %
03.09.2016 02:00 16,8 C 15,6 C 13,6 C 78 % 0 lf 1018,2 hPa 0,0 l/m 0,00 h 0,00 h 5 W/m 3,2 km/h (1 Bft) 97,58 %
03.09.2016 03:00 15,7 C 15,0 C 13,2 C 83 % 1 lf 1017,8 hPa 0,0 l/m 0,00 h 0,00 h 5 W/m 4,7 km/h (1 Bft) 93,21 %
03.09.2016 04:00 15,4 C 15,6 C 13,8 C 86 % 1 lf 1017,7 hPa 0,0 l/m 0,00 h 0,00 h 5 W/m 3,2 km/h (1 Bft) 97,37 %
03.09.2016 05:00 15,4 C 15,2 C 13,3 C 86 % 1 lf 1017,4 hPa 0,0 l/m 0,00 h 0,00 h 5 W/m 8,4 km/h (2 Bft) 98,72 %
03.09.2016 06:00 15,6 C 15,7 C 14,1 C 85 % 1 lf 1017,7 hPa 0,0 l/m 0,00 h 0,00 h 7 W/m 10,8 km/h (2 Bft) 93,26 %
03.09.2016 07:00 15,5 C 15,4 C 14,0 C 85 % 1 lf 1017,8 hPa 0,0 l/m 0,07 h 0,00 h 40 W/m 10,6 km/h (2 Bft) 96,42 %
03.09.2016 08:00 15,7 C 17,2 C 15,4 C 82 % 0 lf 1017,9 hPa 0,0 l/m 0,73 h 0,00 h 143 W/m 12,9 km/h (3 Bft) 97,51 %
03.09.2016 09:00 16,8 C 18,7 C 17,3 C 81 % 0 lf 1018,3 hPa 0,0 l/m 0,50 h 0,00 h 190 W/m 11,0 km/h (2 Bft) 96,05 %
03.09.2016 10:00 17,8 C 21,4 C 19,3 C 83 % 0 lf 1018,4 hPa 0,0 l/m 0,37 h 0,00 h 301 W/m 12,0 km/h (2 Bft) 95,50 %
03.09.2016 11:00 20,4 C 28,7 C 24,8 C 79 % 0 lf 1018,3 hPa 0,0 l/m 0,90 h 0,00 h 587 W/m 13,6 km/h (3 Bft) 97,08 %
03.09.2016 12:00 22,3 C 29,5 C 25,6 C 74 % 0 lf 1017,6 hPa 0,0 l/m 0,80 h 0,00 h 593 W/m 11,8 km/h (2 Bft) 95,81 %
03.09.2016 13:00 23,3 C 28,1 C 24,5 C 72 % 0 lf 1017,1 hPa 0,0 l/m 0,70 h 0,00 h 447 W/m 10,8 km/h (2 Bft) 96,35 %
03.09.2016 14:00 24,3 C 31,7 C 25,8 C 69 % 0 lf 1016,6 hPa 0,0 l/m 0,80 h 0,00 h 649 W/m 12,4 km/h (3 Bft) 96,07 %
03.09.2016 15:00 24,9 C 30,7 C 26,2 C 66 % 0 lf 1016,0 hPa 0,0 l/m 0,60 h 0,00 h 500 W/m 14,5 km/h (3 Bft) 98,94 %
03.09.2016 16:00 25,0 C 30,5 C 24,1 C 64 % 0 lf 1015,4 hPa 0,0 l/m 0,77 h 0,00 h 462 W/m 17,7 km/h (3 Bft) 93,76 %
03.09.2016 17:00 24,6 C 26,9 C 23,1 C 66 % 0 lf 1014,9 hPa 0,0 l/m 0,70 h 0,00 h 275 W/m 13,1 km/h (3 Bft) 96,78 %
03.09.2016 18:00 24,0 C 25,0 C 22,1 C 67 % 0 lf 1014,5 hPa 0,0 l/m 0,90 h 0,00 h 219 W/m 11,0 km/h (2 Bft) 97,29 %
03.09.2016 19:00 23,2 C 22,3 C 19,7 C 69 % 0 lf 1014,1 hPa 0,0 l/m 0,43 h 0,00 h 48 W/m 4,5 km/h (1 Bft) 95,07 %
03.09.2016 20:00 21,7 C 19,7 C 17,3 C 75 % 0 lf 1014,1 hPa 0,0 l/m 0,00 h 0,00 h 6 W/m 0,1 km/h (0 Bft) 95,66 %
03.09.2016 21:00 20,3 C 19,2 C 17,1 C 81 % 1 lf 1013,9 hPa 0,0 l/m 0,00 h 0,00 h 4 W/m 3,5 km/h (1 Bft) 98,01 %
03.09.2016 22:00 19,5 C 19,3 C 17,1 C 83 % 0 lf 1013,9 hPa 0,0 l/m 0,00 h 0,00 h 5 W/m 5,9 km/h (2 Bft) 94,58 %
03.09.2016 23:00 19,2 C 18,5 C 16,0 C 83 % 1 lf 1013,5 hPa 0,0 l/m 0,00 h 0,00 h 5 W/m 6,4 km/h (2 Bft) 97,02 %
04.09.2016 00:00 18,5 C 18,4 C 16,0 C 83 % 1 lf 1013,2 hPa 0,0 l/m 0,00 h 0,00 h 5 W/m 8,3 km/h (2 Bft) 93,09 %
04.09.2016 01:00 18,8 C 18,9 C 17,0 C 80 % 0 lf 1012,5 hPa 0,0 l/m 0,00 h 0,00 h 0 W/m 13,5 km/h (3 Bft) 95,23 %
04.09.2016 02:00 19,2 C 19,0 C 17,3 C 77 % 0 lf 1012,3 hPa 0,0 l/m 0,00 h 0,00 h 0 W/m 13,1 km/h (3 Bft) 97,94 %
04.09.2016 03:00 19,3 C 19,2 C 17,4 C 76 % 0 lf 1012,0 hPa 0,0 l/m 0,00 h 0,00 h 0 W/m 10,9 km/h (2 Bft) 95,25 %
04.09.2016 04:00 19,0 C 18,8 C 16,8 C 78 % 2 lf 1012,0 hPa 0,0 l/m 0,00 h 0,30 h 0 W/m 10,4 km/h (2 Bft) 94,69 %
04.09.2016 05:00 18,5 C 16,5 C 15,2 C 83 % 14 lf 1011,7 hPa 0,2 l/m 0,00 h 0,77 h 0 W/m 10,6 km/h (2 Bft) 98,66 %
04.09.2016 06:00 17,8 C 16,7 C 15,0 C 89 % 7 lf 1011,3 hPa 0,2 l/m 0,00 h 0,53 h 3 W/m 10,9 km/h (2 Bft) 95,63 %
04.09.2016 07:00 17,5 C 16,6 C 15,1 C 91 % 15 lf 1011,4 hPa 0,0 l/m 0,00 h 0,33 h 14 W/m 14,0 km/h (3 Bft) 94,91 %
04.09.2016 08:00 17,6 C 17,6 C 15,8 C 93 % 1 lf 1011,1 hPa 0,0 l/m 0,00 h 0,00 h 63 W/m 17,4 km/h (3 Bft) 97,63 %
04.09.2016 09:00 18,3 C 20,7 C 18,0 C 91 % 1 lf 1010,5 hPa 0,0 l/m 0,27 h 0,00 h 204 W/m 20,1 km/h (4 Bft) 96,54 %
04.09.2016 10:00 19,9 C 21,7 C 20,3 C 86 % 1 lf 1010,0 hPa 0,0 l/m 0,50 h 0,20 h 240 W/m 20,3 km/h (4 Bft) 94,81 %
04.09.2016 11:00 19,9 C 18,5 C 17,4 C 88 % 13 lf 1009,6 hPa 5,0 l/m 0,00 h 0,83 h 58 W/m 18,8 km/h (3 Bft) 97,65 %
04.09.2016 12:00 18,7 C 18,4 C 17,3 C 94 % 15 lf 1009,4 hPa 6,6 l/m 0,10 h 0,80 h 152 W/m 19,5 km/h (3 Bft) 95,53 %
04.09.2016 13:00 19,8 C 22,5 C 20,0 C 95 % 10 lf 1008,9 hPa 0,0 l/m 0,57 h 0,10 h 471 W/m 30,3 km/h (5 Bft) 96,27 %
04.09.2016 14:00 22,0 C 28,9 C 21,5 C 79 % 0 lf 1008,9 hPa 0,0 l/m 0,93 h 0,00 h 731 W/m 31,7 km/h (5 Bft) 95,18 %
04.09.2016 15:00 22,5 C 25,3 C 22,6 C 70 % 0 lf 1009,3 hPa 0,0 l/m 0,40 h 0,00 h 343 W/m 27,5 km/h (4 Bft) 98,08 %
04.09.2016 16:00 21,6 C 23,2 C 20,9 C 68 % 0 lf 1009,7 hPa 0,0 l/m 0,10 h 0,00 h 230 W/m 27,1 km/h (4 Bft) 95,86 %
04.09.2016 17:00 20,5 C 20,3 C 18,4 C 71 % 3 lf 1010,3 hPa 0,0 l/m 0,00 h 0,20 h 47 W/m 21,3 km/h (4 Bft) 94,68 %
04.09.2016 18:00 18,9 C 18,9 C 16,8 C 79 % 2 lf 1010,9 hPa 0,0 l/m 0,00 h 0,00 h 44 W/m 17,7 km/h (3 Bft) 97,51 %
04.09.2016 19:00 18,5 C 18,5 C 17,0 C 78 % 0 lf 1011,3 hPa 0,0 l/m 0,00 h 0,00 h 17 W/m 16,0 km/h (3 Bft) 96,63 %
04.09.2016 20:00 18,3 C 18,2 C 16,7 C 78 % 0 lf 1011,8 hPa 0,0 l/m 0,00 h 0,07 h 5 W/m 16,6 km/h (3 Bft) 95,42 %
04.09.2016 21:00 18,0 C 17,6 C 16,0 C 80 % 0 lf 1012,3 hPa 0,0 l/m 0,00 h 0,00 h 5 W/m 14,6 km/h (3 Bft) 97,03 %
04.09.2016 22:00 17,4 C 17,2 C 15,6 C 83 % 0 lf 1012,8 hPa 0,0 l/m 0,00 h 0,00 h 5 W/m 17,9 km/h (3 Bft) 95,55 %
04.09.2016 23:00 17,4 C 17,1 C 15,8 C 85 % 1 lf 1013,1 hPa 0,0 l/m 0,00 h 0,07 h 5 W/m 17,1 km/h (3 Bft) 97,30 %
Min-Datum _ 30.08.16 30.08.16 31.08.16 30.08.16 29.08.16 04.09.16 - - - - 30.08.16 03.09.16
_ Min-Zeit 07:34 05:44 06:02 17:14 00:00 13:36 - - - - 00:44 00:02
Minimum _ 10,9 C 10,0 C 8,9 C 42 % 0 lf 1008,7 hPa - - - - 0,0 km/h (0 Bft) 10,53 %
Max-Datum _ 31.08.16 31.08.16 31.08.16 30.08.16 29.08.16 30.08.16 04.09.16 29.08.16 29.08.16 31.08.16 04.09.16 29.08.16
_ Max-Zeit 14:36 12:50 15:02 09:24 09:42 10:56 12:12 08:36 09:40 14:32 13:38 02:14
Maximum _ 28,3 C 39,4 C 33,9 C 98 % 15 lf 1026,2 hPa 6,6 l/m 0,03 h 0,03 h 1260 W/m 50,2 km/h
W-SW (7 Bft)
100,00 %
Durchschnitt _ 19,1 C 20,7 C 17,8 C 78 % 2 lf 1018,7 hPa #13,8 l/m #57:32 h #6:21 h 234 W/m 9,7 km/h (2 Bft) 96,11 %
© 2016 W. Hausmann